sensor_id;sensor_type;location;lat;lon;timestamp;P1;durP1;ratioP1;P2;durP2;ratioP2
10863;SDS011;5485;37.558;126.950;2023-03-01T00:01:15;37.90;;;29.70;;
10863;SDS011;5485;37.558;126.950;2023-03-01T00:03:44;33.10;;;27.17;;
10863;SDS011;5485;37.558;126.950;2023-03-01T00:06:11;33.17;;;27.50;;
10863;SDS011;5485;37.558;126.950;2023-03-01T00:08:38;34.23;;;26.50;;
10863;SDS011;5485;37.558;126.950;2023-03-01T00:11:20;32.03;;;26.67;;
10863;SDS011;5485;37.558;126.950;2023-03-01T00:13:53;28.70;;;24.73;;
10863;SDS011;5485;37.558;126.950;2023-03-01T00:16:25;29.33;;;24.73;;
10863;SDS011;5485;37.558;126.950;2023-03-01T00:18:55;31.67;;;24.67;;
10863;SDS011;5485;37.558;126.950;2023-03-01T00:21:22;31.90;;;24.97;;
10863;SDS011;5485;37.558;126.950;2023-03-01T00:23:52;32.47;;;26.43;;
10863;SDS011;5485;37.558;126.950;2023-03-01T00:26:21;30.87;;;24.70;;
10863;SDS011;5485;37.558;126.950;2023-03-01T00:28:50;30.80;;;26.53;;
10863;SDS011;5485;37.558;126.950;2023-03-01T00:31:19;29.80;;;26.20;;
10863;SDS011;5485;37.558;126.950;2023-03-01T00:33:54;34.83;;;25.50;;
10863;SDS011;5485;37.558;126.950;2023-03-01T00:36:23;30.13;;;24.50;;
10863;SDS011;5485;37.558;126.950;2023-03-01T00:38:57;35.17;;;23.40;;
10863;SDS011;5485;37.558;126.950;2023-03-01T00:41:24;27.33;;;21.37;;
10863;SDS011;5485;37.558;126.950;2023-03-01T00:43:54;26.27;;;23.47;;
10863;SDS011;5485;37.558;126.950;2023-03-01T00:46:22;29.08;;;22.65;;
10863;SDS011;5485;37.558;126.950;2023-03-01T00:48:51;27.33;;;21.30;;
10863;SDS011;5485;37.558;126.950;2023-03-01T00:51:19;29.60;;;23.53;;
10863;SDS011;5485;37.558;126.950;2023-03-01T00:53:53;26.73;;;21.73;;
10863;SDS011;5485;37.558;126.950;2023-03-01T00:56:22;21.83;;;19.20;;
10863;SDS011;5485;37.558;126.950;2023-03-01T00:58:49;21.93;;;18.03;;
10863;SDS011;5485;37.558;126.950;2023-03-01T01:01:17;22.50;;;19.97;;
10863;SDS011;5485;37.558;126.950;2023-03-01T01:03:55;23.80;;;20.97;;
10863;SDS011;5485;37.558;126.950;2023-03-01T01:06:28;23.67;;;18.63;;
10863;SDS011;5485;37.558;126.950;2023-03-01T01:08:57;24.50;;;17.97;;
10863;SDS011;5485;37.558;126.950;2023-03-01T01:11:25;21.15;;;17.77;;
10863;SDS011;5485;37.558;126.950;2023-03-01T01:13:53;21.80;;;16.05;;
10863;SDS011;5485;37.558;126.950;2023-03-01T01:16:24;23.90;;;16.83;;
10863;SDS011;5485;37.558;126.950;2023-03-01T01:18:53;18.33;;;15.57;;
10863;SDS011;5485;37.558;126.950;2023-03-01T01:21:22;19.60;;;15.93;;
10863;SDS011;5485;37.558;126.950;2023-03-01T01:23:50;22.93;;;16.77;;
10863;SDS011;5485;37.558;126.950;2023-03-01T01:26:19;20.50;;;15.23;;
10863;SDS011;5485;37.558;126.950;2023-03-01T01:28:48;21.87;;;17.40;;
10863;SDS011;5485;37.558;126.950;2023-03-01T01:31:15;20.27;;;16.15;;
10863;SDS011;5485;37.558;126.950;2023-03-01T01:33:42;16.53;;;14.93;;
10863;SDS011;5485;37.558;126.950;2023-03-01T01:36:12;22.07;;;16.47;;
10863;SDS011;5485;37.558;126.950;2023-03-01T01:38:39;18.65;;;16.50;;
10863;SDS011;5485;37.558;126.950;2023-03-01T01:41:08;24.13;;;17.67;;
10863;SDS011;5485;37.558;126.950;2023-03-01T01:43:40;27.80;;;20.10;;
10863;SDS011;5485;37.558;126.950;2023-03-01T01:48:54;28.60;;;20.33;;
10863;SDS011;5485;37.558;126.950;2023-03-01T01:51:25;29.73;;;21.85;;
10863;SDS011;5485;37.558;126.950;2023-03-01T01:54:06;30.73;;;23.90;;
10863;SDS011;5485;37.558;126.950;2023-03-01T01:56:40;29.47;;;23.83;;
10863;SDS011;5485;37.558;126.950;2023-03-01T01:59:12;27.37;;;23.87;;
10863;SDS011;5485;37.558;126.950;2023-03-01T02:01:39;29.87;;;23.43;;
10863;SDS011;5485;37.558;126.950;2023-03-01T02:04:06;29.00;;;22.40;;
10863;SDS011;5485;37.558;126.950;2023-03-01T02:06:35;27.50;;;24.52;;
10863;SDS011;5485;37.558;126.950;2023-03-01T02:09:15;29.17;;;21.53;;
10863;SDS011;5485;37.558;126.950;2023-03-01T02:11:44;24.53;;;20.53;;
10863;SDS011;5485;37.558;126.950;2023-03-01T02:14:11;23.17;;;17.70;;
10863;SDS011;5485;37.558;126.950;2023-03-01T02:16:38;22.03;;;18.63;;
10863;SDS011;5485;37.558;126.950;2023-03-01T02:19:06;23.83;;;19.07;;
10863;SDS011;5485;37.558;126.950;2023-03-01T02:21:48;22.77;;;19.17;;
10863;SDS011;5485;37.558;126.950;2023-03-01T02:26:55;26.40;;;19.10;;
10863;SDS011;5485;37.558;126.950;2023-03-01T02:29:23;23.93;;;17.97;;
10863;SDS011;5485;37.558;126.950;2023-03-01T02:31:51;28.37;;;20.77;;
10863;SDS011;5485;37.558;126.950;2023-03-01T02:34:22;24.70;;;18.73;;
10863;SDS011;5485;37.558;126.950;2023-03-01T02:37:00;23.97;;;18.37;;
10863;SDS011;5485;37.558;126.950;2023-03-01T02:39:37;22.33;;;17.93;;
10863;SDS011;5485;37.558;126.950;2023-03-01T02:42:10;32.20;;;20.47;;
10863;SDS011;5485;37.558;126.950;2023-03-01T02:44:39;23.80;;;19.20;;
10863;SDS011;5485;37.558;126.950;2023-03-01T02:47:06;26.23;;;18.90;;
10863;SDS011;5485;37.558;126.950;2023-03-01T02:49:34;23.77;;;19.50;;
10863;SDS011;5485;37.558;126.950;2023-03-01T02:55:30;26.10;;;19.80;;
10863;SDS011;5485;37.558;126.950;2023-03-01T02:58:00;34.80;;;20.63;;
10863;SDS011;5485;37.558;126.950;2023-03-01T03:00:33;32.10;;;23.13;;
10863;SDS011;5485;37.558;126.950;2023-03-01T03:03:08;26.47;;;22.77;;
10863;SDS011;5485;37.558;126.950;2023-03-01T03:05:36;39.23;;;25.00;;
10863;SDS011;5485;37.558;126.950;2023-03-01T03:08:03;35.17;;;27.90;;
10863;SDS011;5485;37.558;126.950;2023-03-01T03:10:31;39.40;;;27.07;;
10863;SDS011;5485;37.558;126.950;2023-03-01T03:13:02;47.03;;;28.70;;
10863;SDS011;5485;37.558;126.950;2023-03-01T03:15:34;38.97;;;28.83;;
10863;SDS011;5485;37.558;126.950;2023-03-01T03:18:02;44.58;;;32.78;;
10863;SDS011;5485;37.558;126.950;2023-03-01T03:20:30;44.90;;;32.13;;
10863;SDS011;5485;37.558;126.950;2023-03-01T03:22:57;41.03;;;29.85;;
10863;SDS011;5485;37.558;126.950;2023-03-01T03:25:24;45.17;;;32.83;;
10863;SDS011;5485;37.558;126.950;2023-03-01T03:27:52;45.63;;;33.33;;
10863;SDS011;5485;37.558;126.950;2023-03-01T03:30:27;50.97;;;36.27;;
10863;SDS011;5485;37.558;126.950;2023-03-01T03:32:56;53.40;;;39.33;;
10863;SDS011;5485;37.558;126.950;2023-03-01T03:35:28;54.20;;;40.30;;
10863;SDS011;5485;37.558;126.950;2023-03-01T03:37:57;56.38;;;40.03;;
10863;SDS011;5485;37.558;126.950;2023-03-01T03:40:29;55.30;;;38.83;;
10863;SDS011;5485;37.558;126.950;2023-03-01T03:43:04;48.33;;;38.60;;
10863;SDS011;5485;37.558;126.950;2023-03-01T03:45:36;54.27;;;38.43;;
10863;SDS011;5485;37.558;126.950;2023-03-01T03:48:04;51.17;;;37.58;;
10863;SDS011;5485;37.558;126.950;2023-03-01T03:50:32;56.72;;;39.97;;
10863;SDS011;5485;37.558;126.950;2023-03-01T03:53:03;50.95;;;38.97;;
10863;SDS011;5485;37.558;126.950;2023-03-01T03:55:32;52.45;;;36.35;;
10863;SDS011;5485;37.558;126.950;2023-03-01T03:58:00;53.90;;;37.17;;
10863;SDS011;5485;37.558;126.950;2023-03-01T04:00:32;50.67;;;34.88;;
10863;SDS011;5485;37.558;126.950;2023-03-01T04:03:01;53.70;;;38.22;;
10863;SDS011;5485;37.558;126.950;2023-03-01T04:05:28;49.88;;;38.58;;
10863;SDS011;5485;37.558;126.950;2023-03-01T04:07:55;49.22;;;35.55;;
10863;SDS011;5485;37.558;126.950;2023-03-01T04:10:35;42.03;;;32.95;;
10863;SDS011;5485;37.558;126.950;2023-03-01T04:13:08;45.05;;;33.28;;
10863;SDS011;5485;37.558;126.950;2023-03-01T04:15:37;44.67;;;33.95;;
10863;SDS011;5485;37.558;126.950;2023-03-01T04:18:05;43.85;;;32.75;;
10863;SDS011;5485;37.558;126.950;2023-03-01T04:20:33;42.05;;;32.45;;
10863;SDS011;5485;37.558;126.950;2023-03-01T04:23:03;44.42;;;34.40;;
10863;SDS011;5485;37.558;126.950;2023-03-01T04:28:32;43.00;;;31.33;;
10863;SDS011;5485;37.558;126.950;2023-03-01T04:31:05;45.25;;;33.92;;
10863;SDS011;5485;37.558;126.950;2023-03-01T04:33:51;46.28;;;33.28;;
10863;SDS011;5485;37.558;126.950;2023-03-01T04:36:22;38.13;;;29.83;;
10863;SDS011;5485;37.558;126.950;2023-03-01T04:38:52;40.67;;;28.70;;
10863;SDS011;5485;37.558;126.950;2023-03-01T04:41:20;38.35;;;30.13;;
10863;SDS011;5485;37.558;126.950;2023-03-01T04:43:49;39.92;;;29.98;;
10863;SDS011;5485;37.558;126.950;2023-03-01T04:46:17;43.38;;;29.52;;
10863;SDS011;5485;37.558;126.950;2023-03-01T04:48:45;42.25;;;31.52;;
10863;SDS011;5485;37.558;126.950;2023-03-01T04:51:12;48.40;;;31.38;;
10863;SDS011;5485;37.558;126.950;2023-03-01T04:53:40;43.95;;;33.88;;
10863;SDS011;5485;37.558;126.950;2023-03-01T04:56:08;49.72;;;35.38;;
10863;SDS011;5485;37.558;126.950;2023-03-01T04:58:35;49.85;;;35.80;;
10863;SDS011;5485;37.558;126.950;2023-03-01T05:01:07;45.65;;;33.08;;
10863;SDS011;5485;37.558;126.950;2023-03-01T05:03:42;35.63;;;22.23;;
10863;SDS011;5485;37.558;126.950;2023-03-01T05:06:16;44.13;;;30.10;;
10863;SDS011;5485;37.558;126.950;2023-03-01T05:08:44;43.05;;;31.23;;
10863;SDS011;5485;37.558;126.950;2023-03-01T05:11:11;49.00;;;33.58;;
10863;SDS011;5485;37.558;126.950;2023-03-01T05:13:41;45.90;;;34.93;;
10863;SDS011;5485;37.558;126.950;2023-03-01T05:16:08;47.70;;;34.42;;
10863;SDS011;5485;37.558;126.950;2023-03-01T05:18:39;44.97;;;34.10;;
10863;SDS011;5485;37.558;126.950;2023-03-01T05:21:10;53.88;;;34.75;;
10863;SDS011;5485;37.558;126.950;2023-03-01T05:23:41;52.63;;;37.00;;
10863;SDS011;5485;37.558;126.950;2023-03-01T05:26:08;54.55;;;37.63;;
10863;SDS011;5485;37.558;126.950;2023-03-01T05:28:35;51.33;;;37.33;;
10863;SDS011;5485;37.558;126.950;2023-03-01T05:31:03;54.50;;;37.28;;
10863;SDS011;5485;37.558;126.950;2023-03-01T05:33:38;46.10;;;34.53;;
10863;SDS011;5485;37.558;126.950;2023-03-01T05:36:07;50.80;;;35.63;;
10863;SDS011;5485;37.558;126.950;2023-03-01T05:38:35;46.97;;;35.00;;
10863;SDS011;5485;37.558;126.950;2023-03-01T05:41:02;47.97;;;35.08;;
10863;SDS011;5485;37.558;126.950;2023-03-01T05:43:32;53.28;;;35.13;;
10863;SDS011;5485;37.558;126.950;2023-03-01T05:45:59;43.83;;;32.63;;
10863;SDS011;5485;37.558;126.950;2023-03-01T05:48:26;46.78;;;33.70;;
10863;SDS011;5485;37.558;126.950;2023-03-01T05:50:52;42.47;;;29.85;;
10863;SDS011;5485;37.558;126.950;2023-03-01T05:53:19;35.15;;;27.50;;
10863;SDS011;5485;37.558;126.950;2023-03-01T05:55:47;38.15;;;24.85;;
10863;SDS011;5485;37.558;126.950;2023-03-01T05:58:16;32.47;;;24.48;;
10863;SDS011;5485;37.558;126.950;2023-03-01T06:00:45;32.00;;;22.83;;
10863;SDS011;5485;37.558;126.950;2023-03-01T06:03:14;29.77;;;20.80;;
10863;SDS011;5485;37.558;126.950;2023-03-01T06:05:42;21.73;;;15.27;;
10863;SDS011;5485;37.558;126.950;2023-03-01T06:08:10;24.58;;;17.17;;
10863;SDS011;5485;37.558;126.950;2023-03-01T06:10:38;20.07;;;16.67;;
10863;SDS011;5485;37.558;126.950;2023-03-01T06:13:06;23.77;;;17.13;;
10863;SDS011;5485;37.558;126.950;2023-03-01T06:15:35;23.95;;;16.92;;
10863;SDS011;5485;37.558;126.950;2023-03-01T06:18:15;32.55;;;19.65;;
10863;SDS011;5485;37.558;126.950;2023-03-01T06:20:42;25.95;;;18.35;;
10863;SDS011;5485;37.558;126.950;2023-03-01T06:23:09;27.63;;;19.07;;
10863;SDS011;5485;37.558;126.950;2023-03-01T06:25:35;27.57;;;17.70;;
10863;SDS011;5485;37.558;126.950;2023-03-01T06:28:04;28.67;;;18.23;;
10863;SDS011;5485;37.558;126.950;2023-03-01T06:30:30;27.63;;;17.33;;
10863;SDS011;5485;37.558;126.950;2023-03-01T06:32:57;25.60;;;15.57;;
10863;SDS011;5485;37.558;126.950;2023-03-01T06:35:26;21.23;;;15.17;;
10863;SDS011;5485;37.558;126.950;2023-03-01T06:37:57;20.67;;;14.50;;
10863;SDS011;5485;37.558;126.950;2023-03-01T06:40:25;16.67;;;12.40;;
10863;SDS011;5485;37.558;126.950;2023-03-01T06:42:56;16.30;;;11.23;;
10863;SDS011;5485;37.558;126.950;2023-03-01T06:45:24;15.77;;;9.83;;
10863;SDS011;5485;37.558;126.950;2023-03-01T06:47:51;13.10;;;9.73;;
10863;SDS011;5485;37.558;126.950;2023-03-01T06:50:17;15.03;;;10.37;;
10863;SDS011;5485;37.558;126.950;2023-03-01T06:52:45;10.87;;;8.10;;
10863;SDS011;5485;37.558;126.950;2023-03-01T06:55:12;10.17;;;8.30;;
10863;SDS011;5485;37.558;126.950;2023-03-01T06:57:39;11.77;;;7.50;;
10863;SDS011;5485;37.558;126.950;2023-03-01T07:00:07;11.80;;;7.60;;
10863;SDS011;5485;37.558;126.950;2023-03-01T07:02:34;14.83;;;8.90;;
10863;SDS011;5485;37.558;126.950;2023-03-01T07:05:01;17.10;;;8.47;;
10863;SDS011;5485;37.558;126.950;2023-03-01T07:07:28;19.63;;;8.70;;
10863;SDS011;5485;37.558;126.950;2023-03-01T07:09:55;12.97;;;8.70;;
10863;SDS011;5485;37.558;126.950;2023-03-01T07:12:22;12.97;;;8.50;;
10863;SDS011;5485;37.558;126.950;2023-03-01T07:14:49;16.50;;;9.60;;
10863;SDS011;5485;37.558;126.950;2023-03-01T07:17:15;15.90;;;9.57;;
10863;SDS011;5485;37.558;126.950;2023-03-01T07:19:42;15.30;;;8.87;;
10863;SDS011;5485;37.558;126.950;2023-03-01T07:22:10;18.83;;;9.03;;
10863;SDS011;5485;37.558;126.950;2023-03-01T07:24:37;10.20;;;7.80;;
10863;SDS011;5485;37.558;126.950;2023-03-01T07:27:04;12.10;;;8.43;;
10863;SDS011;5485;37.558;126.950;2023-03-01T07:29:30;14.03;;;8.70;;
10863;SDS011;5485;37.558;126.950;2023-03-01T07:31:57;12.97;;;7.60;;
10863;SDS011;5485;37.558;126.950;2023-03-01T07:34:24;14.00;;;8.03;;
10863;SDS011;5485;37.558;126.950;2023-03-01T07:36:51;13.70;;;8.20;;
10863;SDS011;5485;37.558;126.950;2023-03-01T07:39:18;11.07;;;7.70;;
10863;SDS011;5485;37.558;126.950;2023-03-01T07:41:45;14.00;;;8.10;;
10863;SDS011;5485;37.558;126.950;2023-03-01T07:44:12;12.67;;;8.33;;
10863;SDS011;5485;37.558;126.950;2023-03-01T07:46:40;10.80;;;7.23;;
10863;SDS011;5485;37.558;126.950;2023-03-01T07:49:07;11.87;;;7.73;;
10863;SDS011;5485;37.558;126.950;2023-03-01T07:51:34;15.83;;;7.33;;
10863;SDS011;5485;37.558;126.950;2023-03-01T07:54:01;20.13;;;6.83;;
10863;SDS011;5485;37.558;126.950;2023-03-01T07:56:28;11.50;;;6.73;;
10863;SDS011;5485;37.558;126.950;2023-03-01T07:58:55;12.10;;;7.00;;
10863;SDS011;5485;37.558;126.950;2023-03-01T08:01:24;9.47;;;5.60;;
10863;SDS011;5485;37.558;126.950;2023-03-01T08:03:51;10.03;;;5.50;;
10863;SDS011;5485;37.558;126.950;2023-03-01T08:06:18;9.13;;;5.93;;
10863;SDS011;5485;37.558;126.950;2023-03-01T08:08:45;8.30;;;5.43;;
10863;SDS011;5485;37.558;126.950;2023-03-01T08:11:13;13.97;;;5.80;;
10863;SDS011;5485;37.558;126.950;2023-03-01T08:13:41;10.50;;;5.43;;
10863;SDS011;5485;37.558;126.950;2023-03-01T08:16:12;7.47;;;4.93;;
10863;SDS011;5485;37.558;126.950;2023-03-01T08:18:41;9.50;;;5.17;;
10863;SDS011;5485;37.558;126.950;2023-03-01T08:21:12;4.97;;;4.20;;
10863;SDS011;5485;37.558;126.950;2023-03-01T08:23:43;9.93;;;5.10;;
10863;SDS011;5485;37.558;126.950;2023-03-01T08:26:12;12.40;;;4.87;;
10863;SDS011;5485;37.558;126.950;2023-03-01T08:28:40;10.63;;;5.10;;
10863;SDS011;5485;37.558;126.950;2023-03-01T08:31:18;14.90;;;4.73;;
10863;SDS011;5485;37.558;126.950;2023-03-01T08:33:55;9.00;;;4.30;;
10863;SDS011;5485;37.558;126.950;2023-03-01T08:36:27;6.73;;;4.07;;
10863;SDS011;5485;37.558;126.950;2023-03-01T08:38:55;7.57;;;3.83;;
10863;SDS011;5485;37.558;126.950;2023-03-01T08:41:23;10.23;;;4.27;;
10863;SDS011;5485;37.558;126.950;2023-03-01T08:43:50;11.03;;;4.07;;
10863;SDS011;5485;37.558;126.950;2023-03-01T08:46:18;7.47;;;3.17;;
10863;SDS011;5485;37.558;126.950;2023-03-01T08:48:45;10.47;;;3.57;;
10863;SDS011;5485;37.558;126.950;2023-03-01T08:51:16;14.27;;;3.50;;
10863;SDS011;5485;37.558;126.950;2023-03-01T08:53:44;5.73;;;3.57;;
10863;SDS011;5485;37.558;126.950;2023-03-01T08:56:12;4.27;;;2.93;;
10863;SDS011;5485;37.558;126.950;2023-03-01T08:58:40;7.63;;;3.87;;
10863;SDS011;5485;37.558;126.950;2023-03-01T09:01:17;4.87;;;3.57;;
10863;SDS011;5485;37.558;126.950;2023-03-01T09:03:45;8.47;;;3.47;;
10863;SDS011;5485;37.558;126.950;2023-03-01T09:06:12;6.33;;;3.70;;
10863;SDS011;5485;37.558;126.950;2023-03-01T09:08:41;11.83;;;3.40;;
10863;SDS011;5485;37.558;126.950;2023-03-01T09:11:10;7.70;;;4.17;;
10863;SDS011;5485;37.558;126.950;2023-03-01T09:13:40;8.97;;;4.13;;
10863;SDS011;5485;37.558;126.950;2023-03-01T09:16:07;9.77;;;4.13;;
10863;SDS011;5485;37.558;126.950;2023-03-01T09:18:34;6.97;;;4.20;;
10863;SDS011;5485;37.558;126.950;2023-03-01T09:21:03;8.00;;;4.27;;
10863;SDS011;5485;37.558;126.950;2023-03-01T09:23:39;7.70;;;3.90;;
10863;SDS011;5485;37.558;126.950;2023-03-01T09:26:07;12.17;;;4.83;;
10863;SDS011;5485;37.558;126.950;2023-03-01T09:28:36;10.13;;;4.13;;
10863;SDS011;5485;37.558;126.950;2023-03-01T09:31:03;9.23;;;4.40;;
10863;SDS011;5485;37.558;126.950;2023-03-01T09:33:31;7.10;;;3.43;;
10863;SDS011;5485;37.558;126.950;2023-03-01T09:35:59;10.40;;;3.47;;
10863;SDS011;5485;37.558;126.950;2023-03-01T09:38:27;10.03;;;3.73;;
10863;SDS011;5485;37.558;126.950;2023-03-01T09:40:54;5.73;;;3.73;;
10863;SDS011;5485;37.558;126.950;2023-03-01T09:46:02;13.17;;;3.60;;
10863;SDS011;5485;37.558;126.950;2023-03-01T09:48:33;7.13;;;3.50;;
10863;SDS011;5485;37.558;126.950;2023-03-01T09:51:23;7.93;;;3.13;;
10863;SDS011;5485;37.558;126.950;2023-03-01T09:54:05;10.00;;;3.47;;
10863;SDS011;5485;37.558;126.950;2023-03-01T09:56:53;10.63;;;3.90;;
10863;SDS011;5485;37.558;126.950;2023-03-01T10:02:21;5.10;;;3.93;;
10863;SDS011;5485;37.558;126.950;2023-03-01T10:04:49;4.50;;;3.77;;
10863;SDS011;5485;37.558;126.950;2023-03-01T10:07:26;7.70;;;3.80;;
10863;SDS011;5485;37.558;126.950;2023-03-01T10:09:58;11.03;;;3.70;;
10863;SDS011;5485;37.558;126.950;2023-03-01T10:12:27;9.33;;;3.63;;
10863;SDS011;5485;37.558;126.950;2023-03-01T10:15:14;6.40;;;3.73;;
10863;SDS011;5485;37.558;126.950;2023-03-01T10:17:49;6.67;;;3.43;;
10863;SDS011;5485;37.558;126.950;2023-03-01T10:20:28;4.53;;;3.70;;
10863;SDS011;5485;37.558;126.950;2023-03-01T10:23:04;8.20;;;3.07;;
10863;SDS011;5485;37.558;126.950;2023-03-01T10:28:27;8.70;;;3.77;;
10863;SDS011;5485;37.558;126.950;2023-03-01T10:31:04;8.13;;;5.33;;
10863;SDS011;5485;37.558;126.950;2023-03-01T10:33:37;11.43;;;4.50;;
10863;SDS011;5485;37.558;126.950;2023-03-01T10:36:08;4.63;;;3.83;;
10863;SDS011;5485;37.558;126.950;2023-03-01T10:38:51;5.03;;;3.77;;
10863;SDS011;5485;37.558;126.950;2023-03-01T10:41:24;8.03;;;4.10;;
10863;SDS011;5485;37.558;126.950;2023-03-01T10:43:53;7.90;;;3.83;;
10863;SDS011;5485;37.558;126.950;2023-03-01T10:46:35;6.73;;;4.43;;
10863;SDS011;5485;37.558;126.950;2023-03-01T10:49:16;8.53;;;4.33;;
10863;SDS011;5485;37.558;126.950;2023-03-01T10:51:48;11.37;;;4.63;;
10863;SDS011;5485;37.558;126.950;2023-03-01T10:54:22;9.23;;;4.03;;
10863;SDS011;5485;37.558;126.950;2023-03-01T10:56:59;9.33;;;3.93;;
10863;SDS011;5485;37.558;126.950;2023-03-01T10:59:34;5.70;;;3.80;;
10863;SDS011;5485;37.558;126.950;2023-03-01T11:04:35;5.73;;;3.30;;
10863;SDS011;5485;37.558;126.950;2023-03-01T11:07:02;6.60;;;4.00;;
10863;SDS011;5485;37.558;126.950;2023-03-01T11:09:32;5.90;;;3.53;;
10863;SDS011;5485;37.558;126.950;2023-03-01T11:12:12;6.20;;;4.07;;
10863;SDS011;5485;37.558;126.950;2023-03-01T11:14:48;5.50;;;4.37;;
10863;SDS011;5485;37.558;126.950;2023-03-01T11:17:28;7.00;;;3.90;;
10863;SDS011;5485;37.558;126.950;2023-03-01T11:22:50;4.80;;;4.30;;
10863;SDS011;5485;37.558;126.950;2023-03-01T11:25:40;8.00;;;3.70;;
10863;SDS011;5485;37.558;126.950;2023-03-01T11:28:14;10.87;;;5.27;;
10863;SDS011;5485;37.558;126.950;2023-03-01T11:30:47;10.10;;;5.40;;
10863;SDS011;5485;37.558;126.950;2023-03-01T11:39:02;7.40;;;5.67;;
10863;SDS011;5485;37.558;126.950;2023-03-01T11:41:46;7.40;;;5.20;;
10863;SDS011;5485;37.558;126.950;2023-03-01T11:44:20;9.80;;;4.63;;
10863;SDS011;5485;37.558;126.950;2023-03-01T11:47:02;10.60;;;5.03;;
10863;SDS011;5485;37.558;126.950;2023-03-01T11:49:59;8.07;;;5.40;;
10863;SDS011;5485;37.558;126.950;2023-03-01T11:55:43;8.07;;;5.03;;
10863;SDS011;5485;37.558;126.950;2023-03-01T12:01:32;12.40;;;5.10;;
10863;SDS011;5485;37.558;126.950;2023-03-01T12:12:23;7.93;;;4.87;;
10863;SDS011;5485;37.558;126.950;2023-03-01T12:17:41;8.60;;;5.00;;
10863;SDS011;5485;37.558;126.950;2023-03-01T12:23:55;6.90;;;4.93;;
10863;SDS011;5485;37.558;126.950;2023-03-01T12:26:02;8.77;;;5.07;;
10863;SDS011;5485;37.558;126.950;2023-03-01T12:28:46;10.30;;;5.03;;
10863;SDS011;5485;37.558;126.950;2023-03-01T12:31:33;9.57;;;5.13;;
10863;SDS011;5485;37.558;126.950;2023-03-01T12:34:18;10.83;;;4.97;;
10863;SDS011;5485;37.558;126.950;2023-03-01T12:36:53;8.77;;;5.10;;
10863;SDS011;5485;37.558;126.950;2023-03-01T12:47:50;8.20;;;5.33;;
10863;SDS011;5485;37.558;126.950;2023-03-01T12:50:34;9.60;;;5.67;;
10863;SDS011;5485;37.558;126.950;2023-03-01T12:53:08;6.67;;;5.50;;
10863;SDS011;5485;37.558;126.950;2023-03-01T12:56:05;7.30;;;5.27;;
10863;SDS011;5485;37.558;126.950;2023-03-01T13:01:29;7.73;;;5.50;;
10863;SDS011;5485;37.558;126.950;2023-03-01T13:17:52;10.07;;;6.30;;
10863;SDS011;5485;37.558;126.950;2023-03-01T13:20:21;12.13;;;6.60;;
10863;SDS011;5485;37.558;126.950;2023-03-01T13:23:29;12.10;;;6.40;;
10863;SDS011;5485;37.558;126.950;2023-03-01T13:26:00;13.30;;;5.77;;
10863;SDS011;5485;37.558;126.950;2023-03-01T13:33:53;11.53;;;6.27;;
10863;SDS011;5485;37.558;126.950;2023-03-01T13:38:58;9.53;;;5.97;;
10863;SDS011;5485;37.558;126.950;2023-03-01T13:44:25;8.93;;;6.30;;
10863;SDS011;5485;37.558;126.950;2023-03-01T13:52:35;13.80;;;6.10;;
10863;SDS011;5485;37.558;126.950;2023-03-01T13:55:51;7.37;;;5.83;;
10863;SDS011;5485;37.558;126.950;2023-03-01T13:58:15;12.73;;;6.40;;
10863;SDS011;5485;37.558;126.950;2023-03-01T14:00:47;12.10;;;6.13;;
10863;SDS011;5485;37.558;126.950;2023-03-01T14:03:21;10.43;;;5.77;;
10863;SDS011;5485;37.558;126.950;2023-03-01T14:08:33;10.80;;;6.10;;
10863;SDS011;5485;37.558;126.950;2023-03-01T14:14:07;10.10;;;6.63;;
10863;SDS011;5485;37.558;126.950;2023-03-01T14:16:59;13.33;;;6.63;;
10863;SDS011;5485;37.558;126.950;2023-03-01T14:19:57;8.63;;;6.13;;
10863;SDS011;5485;37.558;126.950;2023-03-01T14:22:33;10.27;;;6.70;;
10863;SDS011;5485;37.558;126.950;2023-03-01T14:25:05;12.17;;;6.27;;
10863;SDS011;5485;37.558;126.950;2023-03-01T14:28:04;10.07;;;6.10;;
10863;SDS011;5485;37.558;126.950;2023-03-01T14:30:38;9.33;;;6.50;;
10863;SDS011;5485;37.558;126.950;2023-03-01T14:33:25;10.73;;;6.27;;
10863;SDS011;5485;37.558;126.950;2023-03-01T14:35:54;8.27;;;6.13;;
10863;SDS011;5485;37.558;126.950;2023-03-01T14:38:23;9.27;;;6.37;;
10863;SDS011;5485;37.558;126.950;2023-03-01T14:43:51;11.30;;;6.90;;
10863;SDS011;5485;37.558;126.950;2023-03-01T14:46:29;8.50;;;6.10;;
10863;SDS011;5485;37.558;126.950;2023-03-01T14:48:58;11.73;;;6.83;;
10863;SDS011;5485;37.558;126.950;2023-03-01T14:51:30;11.40;;;7.27;;
10863;SDS011;5485;37.558;126.950;2023-03-01T14:54:01;6.60;;;4.97;;
10863;SDS011;5485;37.558;126.950;2023-03-01T14:56:28;9.57;;;5.30;;
10863;SDS011;5485;37.558;126.950;2023-03-01T14:59:11;10.73;;;5.20;;
10863;SDS011;5485;37.558;126.950;2023-03-01T15:01:39;11.37;;;6.23;;
10863;SDS011;5485;37.558;126.950;2023-03-01T15:04:09;8.30;;;6.70;;
10863;SDS011;5485;37.558;126.950;2023-03-01T15:06:38;8.70;;;6.37;;
10863;SDS011;5485;37.558;126.950;2023-03-01T15:09:06;12.80;;;6.60;;
10863;SDS011;5485;37.558;126.950;2023-03-01T15:11:41;12.07;;;6.03;;
10863;SDS011;5485;37.558;126.950;2023-03-01T15:14:28;8.40;;;6.67;;
10863;SDS011;5485;37.558;126.950;2023-03-01T15:20:05;15.90;;;6.70;;
10863;SDS011;5485;37.558;126.950;2023-03-01T15:22:51;13.67;;;6.70;;
10863;SDS011;5485;37.558;126.950;2023-03-01T15:25:19;11.80;;;7.17;;
10863;SDS011;5485;37.558;126.950;2023-03-01T15:27:55;13.80;;;7.20;;
10863;SDS011;5485;37.558;126.950;2023-03-01T15:33:27;11.17;;;7.43;;
10863;SDS011;5485;37.558;126.950;2023-03-01T15:35:53;15.33;;;6.90;;
10863;SDS011;5485;37.558;126.950;2023-03-01T15:38:25;8.33;;;6.00;;
10863;SDS011;5485;37.558;126.950;2023-03-01T15:41:26;9.67;;;6.17;;
10863;SDS011;5485;37.558;126.950;2023-03-01T15:43:59;12.57;;;6.53;;
10863;SDS011;5485;37.558;126.950;2023-03-01T15:46:39;8.10;;;6.20;;
10863;SDS011;5485;37.558;126.950;2023-03-01T15:52:01;12.13;;;7.10;;
10863;SDS011;5485;37.558;126.950;2023-03-01T15:54:28;12.23;;;6.57;;
10863;SDS011;5485;37.558;126.950;2023-03-01T15:56:55;7.23;;;5.87;;
10863;SDS011;5485;37.558;126.950;2023-03-01T15:59:23;17.00;;;7.00;;
10863;SDS011;5485;37.558;126.950;2023-03-01T16:01:52;12.33;;;6.83;;
10863;SDS011;5485;37.558;126.950;2023-03-01T16:04:19;11.53;;;7.20;;
10863;SDS011;5485;37.558;126.950;2023-03-01T16:06:48;7.27;;;4.63;;
10863;SDS011;5485;37.558;126.950;2023-03-01T16:09:20;12.13;;;6.07;;
10863;SDS011;5485;37.558;126.950;2023-03-01T16:11:51;10.97;;;6.10;;
10863;SDS011;5485;37.558;126.950;2023-03-01T16:14:21;13.00;;;6.90;;
10863;SDS011;5485;37.558;126.950;2023-03-01T16:16:48;7.70;;;5.50;;
10863;SDS011;5485;37.558;126.950;2023-03-01T16:19:15;8.03;;;5.90;;
10863;SDS011;5485;37.558;126.950;2023-03-01T16:21:43;14.47;;;6.17;;
10863;SDS011;5485;37.558;126.950;2023-03-01T16:24:12;10.10;;;6.10;;
10863;SDS011;5485;37.558;126.950;2023-03-01T16:26:39;6.90;;;4.97;;
10863;SDS011;5485;37.558;126.950;2023-03-01T16:29:07;10.10;;;5.40;;
10863;SDS011;5485;37.558;126.950;2023-03-01T16:31:34;9.03;;;5.90;;
10863;SDS011;5485;37.558;126.950;2023-03-01T16:34:01;11.87;;;5.43;;